createdAt,value
2018-04-08T00:00:16.762Z,13.70
2018-04-08T00:02:42.924Z,13.70
2018-04-08T00:05:09.091Z,13.70
2018-04-08T00:07:35.253Z,13.60
2018-04-08T00:10:01.440Z,13.60
2018-04-08T00:12:28.328Z,13.60
2018-04-08T00:14:54.484Z,13.60
2018-04-08T00:17:20.664Z,13.60
2018-04-08T00:19:46.863Z,13.50
2018-04-08T00:22:13.975Z,13.50
2018-04-08T00:24:40.207Z,13.50
2018-04-08T00:27:06.356Z,13.40
2018-04-08T00:29:32.687Z,13.40
2018-04-08T00:31:58.840Z,13.40
2018-04-08T00:34:25.788Z,13.40
2018-04-08T00:36:51.956Z,13.30
2018-04-08T00:39:18.130Z,13.40
2018-04-08T00:41:44.292Z,13.40
2018-04-08T00:44:10.462Z,13.30
2018-04-08T00:46:36.640Z,13.30
2018-04-08T00:49:02.812Z,13.30
2018-04-08T00:51:29.800Z,13.30
2018-04-08T00:54:08.514Z,13.20
2018-04-08T00:56:34.692Z,13.30
2018-04-08T00:59:00.844Z,13.20
2018-04-08T01:01:28.475Z,13.20
2018-04-08T01:03:54.656Z,13.20
2018-04-08T01:06:21.597Z,13.20
2018-04-08T01:08:47.763Z,13.10
2018-04-08T01:11:14.660Z,13.10
2018-04-08T01:13:40.862Z,13.10
2018-04-08T01:16:07.022Z,13.10
2018-04-08T01:18:33.240Z,13.10
2018-04-08T01:20:59.409Z,13.10
2018-04-08T01:23:25.607Z,13.10
2018-04-08T01:25:51.813Z,13.00
2018-04-08T01:28:18.008Z,13.00
2018-04-08T01:30:45.675Z,12.90
2018-04-08T01:33:11.840Z,12.90
2018-04-08T01:35:38.798Z,12.90
2018-04-08T01:38:05.020Z,12.80
2018-04-08T01:40:31.931Z,12.80
2018-04-08T01:42:58.115Z,12.80
2018-04-08T01:45:24.293Z,12.80
2018-04-08T01:47:50.427Z,12.80
2018-04-08T01:52:55.800Z,12.70
2018-04-08T01:55:21.952Z,12.70
2018-04-08T01:57:48.400Z,12.70
2018-04-08T02:00:15.318Z,12.70
2018-04-08T02:02:41.515Z,12.60
2018-04-08T02:05:07.775Z,12.60
2018-04-08T02:07:33.931Z,12.70
2018-04-08T02:10:00.115Z,12.70
2018-04-08T02:12:26.297Z,12.60
2018-04-08T02:14:52.522Z,12.60
2018-04-08T02:17:18.700Z,12.60
2018-04-08T02:19:45.624Z,12.60
2018-04-08T02:22:11.793Z,12.50
2018-04-08T02:24:37.980Z,12.50
2018-04-08T02:27:04.187Z,12.50
2018-04-08T02:29:30.372Z,12.50
2018-04-08T02:31:57.271Z,12.50
2018-04-08T02:34:23.484Z,12.50
2018-04-08T02:36:49.680Z,12.40
2018-04-08T02:39:16.641Z,12.40
2018-04-08T02:41:43.570Z,12.40
2018-04-08T02:44:10.485Z,12.40
2018-04-08T02:46:36.641Z,12.40
2018-04-08T02:49:02.812Z,12.30
2018-04-08T02:51:29.699Z,12.30
2018-04-08T02:53:55.868Z,12.30
2018-04-08T02:56:22.807Z,12.20
2018-04-08T02:58:49.192Z,12.20
2018-04-08T03:01:15.361Z,12.20
2018-04-08T03:03:41.553Z,12.20
2018-04-08T03:06:07.728Z,12.20
2018-04-08T03:08:34.677Z,12.10
2018-04-08T03:11:00.840Z,12.10
2018-04-08T03:13:27.043Z,12.10
2018-04-08T03:15:53.200Z,12.10
2018-04-08T03:18:19.419Z,12.10
2018-04-08T03:20:45.608Z,12.10
2018-04-08T03:23:12.488Z,12.10
2018-04-08T03:25:38.684Z,12.10
2018-04-08T03:28:04.871Z,12.00
2018-04-08T03:30:31.042Z,12.00
2018-04-08T03:32:57.964Z,11.90
2018-04-08T03:35:24.116Z,12.00
2018-04-08T03:37:50.264Z,11.90
2018-04-08T03:40:16.568Z,11.90
2018-04-08T03:42:42.766Z,11.80
2018-04-08T03:45:08.943Z,11.90
2018-04-08T03:47:35.899Z,11.80
2018-04-08T03:50:02.155Z,11.80
2018-04-08T03:52:28.352Z,11.70
2018-04-08T03:54:54.523Z,11.80
2018-04-08T03:57:20.719Z,11.80
2018-04-08T03:59:47.138Z,11.70
2018-04-08T04:02:13.297Z,11.70
2018-04-08T04:04:40.252Z,11.60
2018-04-08T04:07:06.423Z,11.60
2018-04-08T04:09:32.592Z,11.60
2018-04-08T04:11:58.789Z,11.50
2018-04-08T04:14:24.952Z,11.50
2018-04-08T04:16:51.133Z,11.50
2018-04-08T04:19:30.658Z,11.50
2018-04-08T04:22:10.770Z,11.50
2018-04-08T04:24:49.269Z,11.50
2018-04-08T04:27:15.436Z,11.40
2018-04-08T04:29:41.827Z,11.50
2018-04-08T04:32:08.740Z,11.40
2018-04-08T04:34:34.939Z,11.30
2018-04-08T04:37:01.143Z,11.40
2018-04-08T04:39:28.028Z,11.40
2018-04-08T04:41:54.205Z,11.30
2018-04-08T04:44:20.365Z,11.30
2018-04-08T04:46:46.535Z,11.20
2018-04-08T04:49:12.705Z,11.30
2018-04-08T04:51:39.609Z,11.10
2018-04-08T04:54:05.792Z,11.10
2018-04-08T04:56:32.707Z,11.10
2018-04-08T04:58:58.911Z,11.10
2018-04-08T05:01:25.116Z,11.10
2018-04-08T05:03:52.056Z,11.10
2018-04-08T05:06:18.207Z,11.00
2018-04-08T05:08:44.388Z,11.00
2018-04-08T05:11:10.608Z,11.00
2018-04-08T05:13:36.779Z,11.00
2018-04-08T05:16:02.957Z,11.00
2018-04-08T05:18:29.229Z,11.00
2018-04-08T05:20:55.424Z,11.00
2018-04-08T05:23:21.596Z,11.00
2018-04-08T05:25:47.759Z,11.00
2018-04-08T05:28:13.955Z,11.00
2018-04-08T05:30:40.940Z,11.00
2018-04-08T05:33:07.868Z,11.10
2018-04-08T05:35:34.032Z,11.10
2018-04-08T05:38:00.964Z,11.10
2018-04-08T05:40:27.924Z,11.10
2018-04-08T05:42:54.141Z,11.10
2018-04-08T05:45:21.096Z,11.20
2018-04-08T05:47:47.252Z,11.20
2018-04-08T05:50:14.215Z,11.20
2018-04-08T05:52:41.153Z,11.30
2018-04-08T05:55:08.084Z,11.30
2018-04-08T05:57:35.824Z,11.30
2018-04-08T06:00:02.020Z,11.40
2018-04-08T06:02:35.158Z,11.40
2018-04-08T06:05:01.410Z,11.50
2018-04-08T06:07:27.580Z,11.50
2018-04-08T06:09:53.773Z,11.60
2018-04-08T06:12:19.953Z,11.70
2018-04-08T06:14:46.138Z,11.80
2018-04-08T06:17:12.323Z,11.80
2018-04-08T06:19:38.567Z,11.90
2018-04-08T06:22:04.735Z,12.00
2018-04-08T06:24:30.904Z,12.10
2018-04-08T06:26:57.105Z,12.10
2018-04-08T06:29:23.276Z,12.10
2018-04-08T06:31:49.488Z,12.20
2018-04-08T06:34:16.416Z,12.30
2018-04-08T06:36:43.384Z,12.40
2018-04-08T06:39:11.096Z,12.50
2018-04-08T06:41:38.016Z,12.60
2018-04-08T06:44:04.235Z,12.60
2018-04-08T06:46:30.400Z,12.60
2018-04-08T06:48:57.279Z,12.80
2018-04-08T06:51:23.452Z,12.80
2018-04-08T06:53:49.667Z,12.90
2018-04-08T06:56:15.831Z,13.00
2018-04-08T06:58:42.010Z,13.20
2018-04-08T07:01:08.180Z,13.20
2018-04-08T07:03:35.860Z,13.40
2018-04-08T07:06:03.527Z,13.40
2018-04-08T07:08:29.741Z,13.40
2018-04-08T07:10:57.392Z,13.60
2018-04-08T07:13:24.362Z,13.70
2018-04-08T07:15:50.542Z,13.70
2018-04-08T07:18:17.450Z,13.90
2018-04-08T07:20:44.353Z,14.00
2018-04-08T07:23:10.501Z,14.00
2018-04-08T07:25:36.684Z,14.10
2018-04-08T07:28:03.609Z,14.40
2018-04-08T07:30:30.510Z,14.60
2018-04-08T07:32:56.923Z,14.50
2018-04-08T07:35:23.086Z,14.70
2018-04-08T07:37:50.153Z,14.90
2018-04-08T07:40:16.313Z,15.10
2018-04-08T07:42:42.484Z,15.30
2018-04-08T07:45:09.471Z,15.80
2018-04-08T07:47:35.628Z,15.70
2018-04-08T07:50:01.832Z,15.90
2018-04-08T07:52:28.003Z,16.10
2018-04-08T07:54:55.662Z,16.30
2018-04-08T07:57:21.835Z,16.30
2018-04-08T07:59:48.795Z,16.60
2018-04-08T08:02:14.994Z,16.60
2018-04-08T08:04:41.151Z,16.70
2018-04-08T08:07:08.068Z,17.00
2018-04-08T08:09:34.234Z,17.00
2018-04-08T08:12:01.143Z,17.30
2018-04-08T08:14:27.344Z,17.30
2018-04-08T08:16:53.554Z,17.30
2018-04-08T08:19:19.730Z,17.50
2018-04-08T08:21:46.645Z,17.90
2018-04-08T08:24:12.848Z,17.90
2018-04-08T08:26:39.049Z,18.10
2018-04-08T08:29:05.216Z,18.30
2018-04-08T08:31:31.451Z,18.40
2018-04-08T08:33:57.786Z,18.50
2018-04-08T08:36:23.949Z,18.80
2018-04-08T08:38:50.112Z,18.90
2018-04-08T08:41:16.300Z,19.10
2018-04-08T08:43:43.249Z,19.50
2018-04-08T08:46:09.388Z,19.50
2018-04-08T08:48:35.580Z,19.70
2018-04-08T08:51:01.716Z,19.70
2018-04-08T08:53:27.900Z,19.80
2018-04-08T08:55:54.107Z,20.10
2018-04-08T08:58:20.272Z,20.20
2018-04-08T09:00:47.172Z,20.30
2018-04-08T09:03:13.341Z,20.30
2018-04-08T09:05:39.729Z,20.50
2018-04-08T09:08:05.892Z,20.60
2018-04-08T09:10:32.787Z,20.70
2018-04-08T09:12:58.936Z,20.60
2018-04-08T09:15:25.140Z,20.70
2018-04-08T09:17:52.056Z,20.90
2018-04-08T09:20:24.368Z,20.80
2018-04-08T09:22:56.531Z,21.00
2018-04-08T09:25:27.620Z,21.10
2018-04-08T09:27:53.787Z,21.00
2018-04-08T09:30:19.935Z,21.10
2018-04-08T09:32:47.429Z,21.30
2018-04-08T09:35:13.658Z,21.20
2018-04-08T09:37:39.884Z,21.40
2018-04-08T09:40:06.112Z,21.40
2018-04-08T09:45:00.212Z,21.50
2018-04-08T09:49:54.304Z,21.70
2018-04-08T10:05:18.084Z,22.60
2018-04-08T10:10:12.198Z,22.90
2018-04-08T10:12:38.401Z,23.00
2018-04-08T10:15:06.055Z,23.30
2018-04-08T10:17:33.728Z,23.50
2018-04-08T10:19:59.920Z,23.50
2018-04-08T10:22:26.117Z,23.70
2018-04-08T10:24:53.104Z,23.90
2018-04-08T10:27:19.952Z,23.90
2018-04-08T10:29:46.183Z,23.90
2018-04-08T10:32:12.348Z,24.00
2018-04-08T10:34:38.523Z,24.10
2018-04-08T10:37:04.756Z,24.30
2018-04-08T10:39:31.659Z,24.40
2018-04-08T10:41:57.913Z,24.40
2018-04-08T10:44:24.117Z,24.40
2018-04-08T10:46:50.272Z,24.60
2018-04-08T10:49:16.474Z,24.60
2018-04-08T10:51:42.677Z,24.60
2018-04-08T10:54:08.831Z,24.90
2018-04-08T10:56:34.995Z,24.90
2018-04-08T10:59:01.165Z,25.00
2018-04-08T11:01:28.088Z,25.00
2018-04-08T11:03:54.234Z,25.00
2018-04-08T11:06:20.391Z,24.90
2018-04-08T11:08:47.303Z,25.00
2018-04-08T11:11:14.325Z,24.90
2018-04-08T11:13:40.466Z,24.90
2018-04-08T11:16:07.028Z,24.90
2018-04-08T11:18:33.946Z,24.90
2018-04-08T11:21:00.105Z,24.90
2018-04-08T11:23:26.249Z,25.00
2018-04-08T11:25:52.444Z,25.00
2018-04-08T11:28:18.620Z,25.00
2018-04-08T11:30:45.539Z,25.10
2018-04-08T11:33:11.704Z,25.10
2018-04-08T11:35:37.868Z,25.20
2018-04-08T11:38:04.108Z,25.20
2018-04-08T11:40:30.311Z,25.10
2018-04-08T11:42:56.492Z,25.00
2018-04-08T11:45:22.719Z,25.10
2018-04-08T11:47:48.867Z,25.10
2018-04-08T11:50:15.024Z,25.20
2018-04-08T11:52:41.172Z,25.40
2018-04-08T11:55:07.319Z,25.60
2018-04-08T11:57:34.226Z,25.70
2018-04-08T12:00:00.439Z,25.70
2018-04-08T12:02:26.596Z,25.70
2018-04-08T12:04:52.739Z,25.70
2018-04-08T12:07:18.931Z,25.60
2018-04-08T12:09:45.092Z,25.80
2018-04-08T12:12:11.268Z,25.80
2018-04-08T12:14:38.184Z,25.60
2018-04-08T12:17:04.368Z,25.50
2018-04-08T12:19:30.568Z,25.50
2018-04-08T12:21:56.736Z,25.60
2018-04-08T12:24:22.886Z,25.40
2018-04-08T12:26:49.053Z,25.40
2018-04-08T12:29:15.255Z,25.30
2018-04-08T12:31:41.460Z,25.10
2018-04-08T12:34:08.373Z,24.70
2018-04-08T12:36:35.359Z,24.60
2018-04-08T12:39:01.603Z,24.50
2018-04-08T12:41:28.483Z,24.30
2018-04-08T12:43:54.654Z,24.30
2018-04-08T12:46:20.840Z,24.30
2018-04-08T12:48:47.043Z,24.40
2018-04-08T12:51:13.922Z,24.20
2018-04-08T12:53:40.087Z,24.20
2018-04-08T12:56:06.338Z,24.10
2018-04-08T12:58:32.487Z,24.10
2018-04-08T13:00:59.452Z,23.90
2018-04-08T13:03:26.348Z,23.90
2018-04-08T13:05:52.504Z,23.90
2018-04-08T13:08:19.491Z,23.90
2018-04-08T13:10:45.659Z,23.90
2018-04-08T13:13:11.848Z,23.90
2018-04-08T13:15:38.756Z,23.80
2018-04-08T13:18:04.951Z,23.80
2018-04-08T13:20:31.104Z,23.80
2018-04-08T13:22:57.292Z,23.70
2018-04-08T13:25:24.200Z,23.80
2018-04-08T13:27:50.369Z,23.70
2018-04-08T13:30:16.552Z,23.70
2018-04-08T13:32:42.732Z,23.70
2018-04-08T13:35:08.905Z,23.70
2018-04-08T13:37:35.084Z,23.70
2018-04-08T13:40:02.059Z,23.70
2018-04-08T13:42:28.990Z,23.60
2018-04-08T13:44:56.658Z,23.60
2018-04-08T13:47:22.844Z,23.60
2018-04-08T13:49:49.035Z,23.70
2018-04-08T13:52:15.345Z,23.70
2018-04-08T13:54:41.530Z,23.70
2018-04-08T13:57:07.715Z,23.70
2018-04-08T13:59:33.876Z,23.60
2018-04-08T14:02:00.812Z,23.60
2018-04-08T14:04:26.955Z,23.60
2018-04-08T14:06:53.154Z,23.60
2018-04-08T14:09:19.364Z,23.60
2018-04-08T14:11:45.553Z,23.60
2018-04-08T14:14:12.012Z,23.70
2018-04-08T14:16:38.197Z,23.60
2018-04-08T14:19:04.449Z,23.60
2018-04-08T14:21:30.623Z,23.60
2018-04-08T14:23:57.516Z,23.60
2018-04-08T14:26:23.674Z,23.60
2018-04-08T14:28:50.591Z,23.50
2018-04-08T14:31:16.835Z,23.50
2018-04-08T14:33:43.065Z,23.50
2018-04-08T14:36:09.244Z,23.50
2018-04-08T14:38:36.151Z,23.50
2018-04-08T14:41:02.534Z,23.50
2018-04-08T14:43:29.426Z,23.50
2018-04-08T14:45:56.399Z,23.50
2018-04-08T14:48:22.604Z,23.50
2018-04-08T14:50:48.779Z,23.50
2018-04-08T14:53:14.957Z,23.40
2018-04-08T14:55:41.171Z,23.40
2018-04-08T14:58:08.123Z,23.40
2018-04-08T15:00:35.084Z,23.40
2018-04-08T15:03:01.263Z,23.40
2018-04-08T15:05:27.436Z,23.40
2018-04-08T15:07:53.638Z,23.30
2018-04-08T15:10:20.599Z,23.40
2018-04-08T15:12:47.556Z,23.40
2018-04-08T15:15:13.762Z,23.30
2018-04-08T15:17:39.983Z,23.30
2018-04-08T15:20:06.199Z,23.30
2018-04-08T15:22:32.384Z,23.40
2018-04-08T15:24:58.571Z,23.40
2018-04-08T15:27:24.728Z,23.30
2018-04-08T15:29:50.926Z,23.30
2018-04-08T15:32:17.083Z,23.30
2018-04-08T15:34:43.288Z,23.30
2018-04-08T15:37:09.472Z,23.30
2018-04-08T15:39:35.614Z,23.30
2018-04-08T15:42:01.953Z,23.30
2018-04-08T15:44:28.148Z,23.30
2018-04-08T15:46:54.347Z,23.30
2018-04-08T15:49:21.285Z,23.30
2018-04-08T15:51:47.521Z,23.20
2018-04-08T15:54:14.470Z,23.20
2018-04-08T15:56:40.622Z,23.10
2018-04-08T15:59:06.817Z,23.10
2018-04-08T16:01:32.967Z,23.10
2018-04-08T16:03:59.175Z,23.10
2018-04-08T16:06:25.364Z,23.10
2018-04-08T16:08:51.507Z,23.00
2018-04-08T16:11:17.673Z,23.00
2018-04-08T16:13:43.837Z,23.00
2018-04-08T16:16:10.759Z,22.90
2018-04-08T16:18:36.945Z,22.90
2018-04-08T16:21:03.120Z,22.90
2018-04-08T16:23:29.258Z,22.90
2018-04-08T16:25:55.670Z,22.90
2018-04-08T16:28:21.852Z,22.90
2018-04-08T16:30:48.772Z,22.80
2018-04-08T16:33:14.921Z,22.80
2018-04-08T16:35:41.057Z,22.80
2018-04-08T16:38:07.247Z,22.80
2018-04-08T16:40:33.474Z,22.70
2018-04-08T16:42:59.669Z,22.70
2018-04-08T16:45:26.596Z,22.60
2018-04-08T16:47:52.767Z,22.60
2018-04-08T16:50:18.967Z,22.50
2018-04-08T16:52:45.116Z,22.50
2018-04-08T16:55:11.356Z,22.50
2018-04-08T16:57:37.504Z,22.40
2018-04-08T17:00:03.687Z,22.40
2018-04-08T17:02:29.872Z,22.30
2018-04-08T17:04:56.059Z,22.30
2018-04-08T17:07:23.740Z,22.20
2018-04-08T17:09:49.929Z,22.20
2018-04-08T17:12:16.115Z,22.10
2018-04-08T17:14:42.275Z,22.10
2018-04-08T17:17:09.268Z,22.00
2018-04-08T17:19:35.480Z,22.00
2018-04-08T17:22:01.664Z,21.90
2018-04-08T17:24:28.610Z,21.80
2018-04-08T17:26:54.829Z,21.80
2018-04-08T17:29:21.108Z,21.70
2018-04-08T17:31:48.022Z,21.60
2018-04-08T17:34:14.199Z,21.60
2018-04-08T17:36:40.351Z,21.60
2018-04-08T17:39:06.533Z,21.50
2018-04-08T17:41:39.660Z,21.50
2018-04-08T17:44:05.861Z,21.50
2018-04-08T17:46:32.052Z,21.40
2018-04-08T17:48:58.209Z,21.30
2018-04-08T17:51:24.388Z,21.30
2018-04-08T17:53:50.565Z,21.20
2018-04-08T17:56:16.738Z,21.20
2018-04-08T17:58:42.928Z,21.20
2018-04-08T18:01:10.605Z,21.00
2018-04-08T18:03:36.799Z,21.00
2018-04-08T18:06:02.972Z,20.90
2018-04-08T18:08:29.916Z,20.80
2018-04-08T18:10:56.872Z,20.80
2018-04-08T18:13:25.710Z,20.80
2018-04-08T18:15:52.711Z,20.80
2018-04-08T18:18:18.876Z,20.60
2018-04-08T18:20:45.824Z,20.60
2018-04-08T18:23:12.008Z,20.50
2018-04-08T18:25:38.216Z,20.40
2018-04-08T18:28:05.155Z,20.30
2018-04-08T18:30:32.096Z,20.30
2018-04-08T18:32:58.276Z,20.20
2018-04-08T18:35:24.474Z,20.20
2018-04-08T18:37:51.392Z,20.10
2018-04-08T18:40:17.552Z,20.10
2018-04-08T18:42:43.719Z,20.10
2018-04-08T18:45:09.948Z,20.00
2018-04-08T18:47:36.120Z,20.00
2018-04-08T18:50:04.558Z,19.90
2018-04-08T18:52:34.477Z,19.80
2018-04-08T18:55:00.896Z,19.80
2018-04-08T18:57:27.048Z,19.80
2018-04-08T18:59:53.967Z,19.70
2018-04-08T19:02:20.880Z,19.60
2018-04-08T19:04:47.099Z,19.60
2018-04-08T19:07:13.281Z,19.60
2018-04-08T19:09:39.468Z,19.60
2018-04-08T19:12:05.652Z,19.50
2018-04-08T19:14:38.708Z,19.40
2018-04-08T19:17:04.870Z,19.40
2018-04-08T19:19:31.057Z,19.40
2018-04-08T19:21:57.236Z,19.40
2018-04-08T19:24:23.540Z,19.40
2018-04-08T19:26:49.712Z,19.20
2018-04-08T19:29:16.636Z,19.20
2018-04-08T19:31:42.850Z,19.20
2018-04-08T19:34:09.039Z,19.20
2018-04-08T19:36:35.987Z,19.20
2018-04-08T19:39:02.897Z,19.10
2018-04-08T19:41:29.063Z,19.10
2018-04-08T19:43:55.980Z,19.00
2018-04-08T19:46:22.188Z,19.00
2018-04-08T19:48:48.360Z,19.10
2018-04-08T19:51:14.547Z,19.00
2018-04-08T19:53:41.529Z,19.00
2018-04-08T19:56:07.696Z,19.00
2018-04-08T19:58:34.645Z,18.90
2018-04-08T20:01:00.796Z,18.90
2018-04-08T20:03:26.965Z,18.90
2018-04-08T20:05:53.152Z,18.90
2018-04-08T20:08:19.341Z,18.80
2018-04-08T20:10:45.556Z,18.90
2018-04-08T20:13:11.731Z,18.80
2018-04-08T20:15:39.424Z,18.70
2018-04-08T20:18:06.338Z,18.80
2018-04-08T20:20:32.486Z,18.70
2018-04-08T20:22:59.419Z,18.80
2018-04-08T20:25:25.723Z,18.70
2018-04-08T20:27:51.871Z,18.70
2018-04-08T20:30:18.242Z,18.60
2018-04-08T20:32:44.420Z,18.60
2018-04-08T20:35:10.652Z,18.50
2018-04-08T20:37:37.584Z,18.50
2018-04-08T20:40:04.551Z,18.50
2018-04-08T20:42:31.469Z,18.40
2018-04-08T20:44:57.642Z,18.40
2018-04-08T20:47:23.880Z,18.40
2018-04-08T20:49:50.060Z,18.40
2018-04-08T20:52:16.236Z,18.40
2018-04-08T20:54:42.419Z,18.40
2018-04-08T20:57:09.364Z,18.30
2018-04-08T20:59:35.539Z,18.30
2018-04-08T21:02:01.736Z,18.30
2018-04-08T21:04:27.876Z,18.20
2018-04-08T21:06:54.080Z,18.20
2018-04-08T21:09:20.283Z,18.20
2018-04-08T21:11:47.177Z,18.20
2018-04-08T21:14:13.376Z,18.20
2018-04-08T21:16:40.285Z,18.00
2018-04-08T21:19:06.460Z,18.00
2018-04-08T21:21:33.348Z,18.10
2018-04-08T21:23:59.543Z,18.00
2018-04-08T21:26:26.459Z,18.00
2018-04-08T21:28:52.596Z,18.00
2018-04-08T21:31:18.779Z,18.00
2018-04-08T21:33:45.056Z,17.90
2018-04-08T21:36:12.704Z,17.90
2018-04-08T21:38:38.887Z,17.90
2018-04-08T21:41:05.076Z,17.90
2018-04-08T21:43:31.279Z,17.90
2018-04-08T21:45:57.462Z,17.80
2018-04-08T21:48:23.676Z,17.80
2018-04-08T21:50:49.840Z,17.70
2018-04-08T21:53:16.748Z,17.70
2018-04-08T21:55:42.940Z,17.70
2018-04-08T21:58:09.128Z,17.70
2018-04-08T22:00:35.300Z,17.70
2018-04-08T22:03:02.231Z,17.70
2018-04-08T22:05:29.132Z,17.60
2018-04-08T22:07:55.316Z,17.60
2018-04-08T22:10:22.267Z,17.60
2018-04-08T22:12:49.240Z,17.60
2018-04-08T22:15:16.199Z,17.60
2018-04-08T22:17:42.384Z,17.60
2018-04-08T22:20:09.309Z,17.60
2018-04-08T22:22:35.496Z,17.60
2018-04-08T22:25:01.648Z,17.50
2018-04-08T22:27:28.534Z,17.50
2018-04-08T22:29:54.768Z,17.50
2018-04-08T22:32:20.929Z,17.50
2018-04-08T22:34:47.100Z,17.40
2018-04-08T22:37:13.264Z,17.40
2018-04-08T22:39:39.425Z,17.40
2018-04-08T22:42:05.628Z,17.30
2018-04-08T22:44:31.828Z,17.30
2018-04-08T22:46:58.745Z,17.20
2018-04-08T22:49:24.955Z,17.20
2018-04-08T22:51:51.213Z,17.20
2018-04-08T22:54:17.364Z,17.20
2018-04-08T22:56:43.572Z,17.20
2018-04-08T22:59:11.236Z,17.10
2018-04-08T23:01:37.418Z,17.10
2018-04-08T23:04:04.304Z,17.20
2018-04-08T23:06:30.488Z,17.20
2018-04-08T23:08:57.400Z,17.10
2018-04-08T23:11:23.585Z,17.10
2018-04-08T23:13:50.496Z,17.10
2018-04-08T23:16:16.792Z,17.00
2018-04-08T23:18:42.947Z,17.00
2018-04-08T23:21:09.087Z,17.00
2018-04-08T23:23:35.255Z,16.90
2018-04-08T23:26:01.419Z,16.90
2018-04-08T23:28:27.612Z,16.90
2018-04-08T23:30:53.772Z,16.80
2018-04-08T23:33:20.648Z,16.80
2018-04-08T23:35:46.819Z,16.70
2018-04-08T23:38:12.984Z,16.80
2018-04-08T23:40:39.890Z,16.70
2018-04-08T23:43:06.092Z,16.70
2018-04-08T23:45:32.239Z,16.70
2018-04-08T23:47:58.432Z,16.70
2018-04-08T23:50:24.636Z,16.70
2018-04-08T23:52:51.571Z,16.70
2018-04-08T23:55:17.985Z,16.70
2018-04-08T23:57:44.148Z,16.60
